Time;durP1;ratioP1;P1;durP2;ratioP2;P2;SDS_P1;SDS_P2;PMS_P1;PMS_P2;Temp;Humidity;BMP_temperature;BMP_pressure;BME280_temperature;BME280_humidity;BME280_pressure;Samples;Min_cycle;Max_cycle;Signal;HPM_P1;HPM_P2
2022/03/19 00:00:17;;;;;;;;;;;9.40;44.90;;;;;;4994900;28;19917;-56
2022/03/19 00:02:43;;;;;;;;;;;9.40;45.00;;;;;;4994870;28;19910;-56
2022/03/19 00:05:09;;;;;;;;;;;9.40;45.60;;;;;;4994718;28;19913;-68
2022/03/19 00:07:40;;;;;;;;;;;9.50;44.80;;;;;;4994749;28;20325;-56
2022/03/19 00:10:08;;;;;;;;;;;9.50;44.80;;;;;;4994653;28;19917;-62
2022/03/19 00:12:39;;;;;;;;;;;9.50;44.60;;;;;;4994258;28;19910;-57
2022/03/19 00:15:05;;;;;;;;;;;9.60;44.50;;;;;;4994325;28;19917;-70
2022/03/19 00:17:31;;;;;;;;;;;9.50;44.50;;;;;;4994550;28;19909;-71
2022/03/19 00:19:56;;;;;;;;;;;9.40;44.60;;;;;;4994441;28;19965;-67
2022/03/19 00:22:22;;;;;;;;;;;9.40;44.40;;;;;;4994505;28;19909;-62
2022/03/19 00:24:48;;;;;;;;;;;9.40;44.40;;;;;;4994509;28;19910;-57
2022/03/19 00:27:13;;;;;;;;;;;9.40;44.30;;;;;;4994852;28;19955;-70
2022/03/19 00:29:39;;;;;;;;;;;9.40;44.30;;;;;;4994693;28;20018;-71
2022/03/19 00:32:04;;;;;;;;;;;9.40;44.30;;;;;;4994454;28;19934;-68
2022/03/19 00:34:31;;;;;;;;;;;9.30;44.40;;;;;;4994302;28;19910;-69
2022/03/19 00:36:57;;;;;;;;;;;9.30;44.60;;;;;;4994097;28;20028;-68
2022/03/19 00:39:22;;;;;;;;;;;9.30;44.50;;;;;;4994504;28;19957;-66
2022/03/19 00:41:48;;;;;;;;;;;9.30;44.60;;;;;;4994187;28;19979;-68
2022/03/19 00:44:13;;;;;;;;;;;9.20;44.60;;;;;;4996626;28;19918;-64
2022/03/19 00:46:39;;;;;;;;;;;9.20;44.70;;;;;;4998576;28;19925;-61
2022/03/19 00:49:04;;;;;;;;;;;9.30;44.70;;;;;;4998417;28;19910;-56
2022/03/19 00:51:32;;;;;;;;;;;9.30;44.50;;;;;;4998165;28;19910;-60
2022/03/19 00:53:57;;;;;;;;;;;9.30;44.40;;;;;;4998205;28;20009;-61
2022/03/19 00:56:23;;;;;;;;;;;9.30;44.40;;;;;;4996903;28;19953;-56
2022/03/19 00:58:48;;;;;;;;;;;9.40;44.30;;;;;;4998064;28;19910;-68
2022/03/19 01:01:14;;;;;;;;;;;9.40;44.30;;;;;;4998198;28;19910;-57
2022/03/19 01:03:39;;;;;;;;;;;9.50;44.10;;;;;;4997899;28;19910;-60
2022/03/19 01:06:05;;;;;;;;;;;9.50;44.00;;;;;;4997797;28;20396;-63
2022/03/19 01:08:31;;;;;;;;;;;9.50;43.90;;;;;;4997774;28;20470;-62
2022/03/19 01:10:56;;;;;;;;;;;9.50;44.00;;;;;;4998033;28;19910;-58
2022/03/19 01:13:22;;;;;;;;;;;9.50;43.90;;;;;;4997642;28;19917;-57
2022/03/19 01:15:47;;;;;;;;;;;9.50;43.90;;;;;;4998013;28;19963;-60
2022/03/19 01:18:13;;;;;;;;;;;9.40;43.80;;;;;;4997585;28;19937;-58
2022/03/19 01:20:38;;;;;;;;;;;9.40;43.90;;;;;;4997620;28;19909;-63
2022/03/19 01:23:04;;;;;;;;;;;9.40;43.90;;;;;;4997589;28;20049;-59
2022/03/19 01:25:30;;;;;;;;;;;9.30;44.20;;;;;;4997690;28;20384;-59
2022/03/19 01:27:55;;;;;;;;;;;9.40;43.80;;;;;;4997398;28;19921;-58
2022/03/19 01:30:21;;;;;;;;;;;9.30;43.80;;;;;;4997474;28;20427;-58
2022/03/19 01:32:47;;;;;;;;;;;9.30;44.00;;;;;;4997288;28;20000;-56
2022/03/19 01:35:13;;;;;;;;;;;9.30;43.80;;;;;;4997728;28;19963;-59
2022/03/19 01:37:39;;;;;;;;;;;9.30;43.70;;;;;;4997019;28;19958;-56
2022/03/19 01:40:06;;;;;;;;;;;9.40;43.80;;;;;;4997569;28;19968;-56
2022/03/19 01:42:33;;;;;;;;;;;9.40;43.70;;;;;;4997132;28;19918;-57
2022/03/19 01:44:59;;;;;;;;;;;9.20;44.00;;;;;;4997480;28;19909;-56
2022/03/19 01:47:28;;;;;;;;;;;9.30;44.00;;;;;;4997424;28;19964;-56
2022/03/19 01:49:54;;;;;;;;;;;9.30;43.80;;;;;;4997203;28;20270;-56
2022/03/19 01:52:19;;;;;;;;;;;9.30;43.80;;;;;;4997126;28;19910;-56
2022/03/19 01:54:46;;;;;;;;;;;9.20;44.10;;;;;;4996412;28;19920;-57
2022/03/19 01:57:14;;;;;;;;;;;9.10;44.20;;;;;;4998134;28;19910;-56
2022/03/19 01:59:40;;;;;;;;;;;9.10;44.80;;;;;;5001296;28;19909;-57
2022/03/19 02:02:07;;;;;;;;;;;9.00;44.30;;;;;;4997614;28;20011;-56
2022/03/19 02:04:36;;;;;;;;;;;9.10;44.20;;;;;;4996883;28;19910;-56
2022/03/19 02:07:02;;;;;;;;;;;9.10;43.90;;;;;;4996793;28;19925;-54
2022/03/19 02:09:28;;;;;;;;;;;9.10;44.00;;;;;;4996884;28;19932;-56
2022/03/19 02:11:54;;;;;;;;;;;9.00;44.20;;;;;;4996757;28;19910;-56
2022/03/19 02:14:19;;;;;;;;;;;9.00;44.20;;;;;;4996660;28;20350;-57
2022/03/19 02:16:46;;;;;;;;;;;9.10;44.20;;;;;;4996781;28;20293;-55
2022/03/19 02:19:12;;;;;;;;;;;9.10;44.10;;;;;;4996701;28;19914;-55
2022/03/19 02:21:39;;;;;;;;;;;9.00;43.90;;;;;;4997008;28;19910;-55
2022/03/19 02:26:49;;;;;;;;;;;9.00;44.20;;;;;;4996513;28;19968;-56
2022/03/19 02:29:14;;;;;;;;;;;9.10;44.10;;;;;;4996591;28;19953;-56
2022/03/19 02:31:41;;;;;;;;;;;9.00;44.20;;;;;;4996272;28;19917;-56
2022/03/19 02:34:10;;;;;;;;;;;9.00;44.40;;;;;;4996413;28;20393;-58
2022/03/19 02:36:41;;;;;;;;;;;8.90;44.50;;;;;;4996218;28;20354;-56
2022/03/19 02:39:10;;;;;;;;;;;9.00;44.30;;;;;;4996129;28;20370;-56
2022/03/19 02:41:40;;;;;;;;;;;8.90;44.20;;;;;;4996046;28;19917;-56
2022/03/19 02:44:05;;;;;;;;;;;8.90;44.30;;;;;;4996194;28;19917;-56
2022/03/19 02:46:41;;;;;;;;;;;9.00;44.20;;;;;;4996166;28;19922;-56
2022/03/19 02:49:07;;;;;;;;;;;8.90;44.20;;;;;;4996001;28;19910;-55
2022/03/19 02:51:38;;;;;;;;;;;8.90;44.30;;;;;;4996331;28;19909;-56
2022/03/19 02:54:04;;;;;;;;;;;8.90;44.30;;;;;;4995907;28;19964;-56
2022/03/19 02:56:31;;;;;;;;;;;8.90;44.30;;;;;;4995939;28;19910;-57
2022/03/19 02:58:57;;;;;;;;;;;8.80;44.50;;;;;;4995752;28;20004;-55
2022/03/19 03:01:22;;;;;;;;;;;8.80;44.60;;;;;;4995804;28;20389;-56
2022/03/19 03:03:48;;;;;;;;;;;8.80;44.80;;;;;;4995580;28;20373;-56
2022/03/19 03:06:13;;;;;;;;;;;8.90;44.50;;;;;;4994875;28;20012;-56
2022/03/19 03:08:39;;;;;;;;;;;9.00;44.50;;;;;;4995961;28;19909;-56
2022/03/19 03:11:05;;;;;;;;;;;9.00;44.30;;;;;;4995738;28;19957;-56
2022/03/19 03:13:30;;;;;;;;;;;9.00;44.30;;;;;;4995590;28;19910;-56
2022/03/19 03:15:57;;;;;;;;;;;8.90;44.40;;;;;;4995284;28;19909;-55
2022/03/19 03:18:22;;;;;;;;;;;8.90;44.30;;;;;;4995656;28;20004;-56
2022/03/19 03:20:48;;;;;;;;;;;8.90;44.30;;;;;;4995572;28;20025;-55
2022/03/19 03:23:14;;;;;;;;;;;8.90;44.50;;;;;;4995781;28;19929;-57
2022/03/19 03:25:39;;;;;;;;;;;8.80;44.40;;;;;;4994994;28;20004;-55
2022/03/19 03:28:05;;;;;;;;;;;8.80;44.60;;;;;;4995533;28;19953;-56
2022/03/19 03:30:31;;;;;;;;;;;8.70;44.80;;;;;;4995404;28;19964;-55
2022/03/19 03:32:56;;;;;;;;;;;8.70;44.80;;;;;;4995167;28;19910;-56
2022/03/19 03:35:25;;;;;;;;;;;8.70;44.60;;;;;;4995322;28;19910;-56
2022/03/19 03:37:51;;;;;;;;;;;8.80;44.30;;;;;;4995034;28;19922;-56
2022/03/19 03:40:18;;;;;;;;;;;8.80;44.30;;;;;;4995177;28;19910;-57
2022/03/19 03:42:44;;;;;;;;;;;8.80;44.40;;;;;;4994962;28;19910;-55
2022/03/19 03:45:10;;;;;;;;;;;8.80;44.60;;;;;;4995174;28;20461;-55
2022/03/19 03:47:35;;;;;;;;;;;8.90;44.40;;;;;;4994834;28;20358;-55
2022/03/19 03:50:01;;;;;;;;;;;8.90;44.30;;;;;;4995304;28;19913;-55
2022/03/19 03:52:28;;;;;;;;;;;8.80;44.40;;;;;;4994904;28;20288;-55
2022/03/19 03:54:53;;;;;;;;;;;8.90;44.40;;;;;;4995006;28;19910;-56
2022/03/19 03:57:19;;;;;;;;;;;8.90;44.10;;;;;;4994848;28;19916;-56
2022/03/19 03:59:45;;;;;;;;;;;8.90;44.00;;;;;;4994733;28;19960;-56
2022/03/19 04:02:11;;;;;;;;;;;8.80;44.10;;;;;;4994493;28;20330;-55
2022/03/19 04:04:38;;;;;;;;;;;8.80;44.00;;;;;;4994923;28;20282;-55
2022/03/19 04:07:03;;;;;;;;;;;8.80;44.30;;;;;;4994468;28;20362;-56
2022/03/19 04:09:29;;;;;;;;;;;8.80;44.60;;;;;;4994976;28;19937;-56
2022/03/19 04:11:55;;;;;;;;;;;8.80;44.80;;;;;;4994794;28;19910;-57
2022/03/19 04:14:20;;;;;;;;;;;8.80;45.00;;;;;;4994586;28;19917;-56
2022/03/19 04:16:46;;;;;;;;;;;8.70;45.20;;;;;;4994497;28;19917;-56
2022/03/19 04:19:11;;;;;;;;;;;8.70;45.10;;;;;;4994510;28;19920;-59
2022/03/19 04:21:37;;;;;;;;;;;8.70;45.10;;;;;;4994401;28;19910;-56
2022/03/19 04:24:02;;;;;;;;;;;8.70;45.20;;;;;;4994692;28;19918;-57
2022/03/19 04:26:28;;;;;;;;;;;8.70;45.10;;;;;;4994782;28;19918;-56
2022/03/19 04:28:53;;;;;;;;;;;8.60;45.10;;;;;;4993044;28;20003;-56
2022/03/19 04:31:19;;;;;;;;;;;8.60;45.20;;;;;;4994240;28;19913;-55
2022/03/19 04:33:44;;;;;;;;;;;8.60;45.10;;;;;;4994583;28;20045;-56
2022/03/19 04:36:31;;;;;;;;;;;8.60;45.10;;;;;;4994632;28;19910;-55
2022/03/19 04:39:00;;;;;;;;;;;8.60;44.90;;;;;;4994386;28;19929;-56
2022/03/19 04:41:26;;;;;;;;;;;8.60;44.80;;;;;;4994408;28;19910;-56
2022/03/19 04:43:51;;;;;;;;;;;8.60;45.00;;;;;;4994121;28;20395;-56
2022/03/19 04:46:17;;;;;;;;;;;8.70;44.80;;;;;;4994263;28;19918;-56
2022/03/19 04:48:45;;;;;;;;;;;8.60;44.90;;;;;;4994251;28;20290;-56
2022/03/19 04:51:14;;;;;;;;;;;8.50;45.10;;;;;;4997268;28;19913;-56
2022/03/19 04:53:40;;;;;;;;;;;8.50;45.00;;;;;;4999302;28;19914;-71
2022/03/19 04:56:06;;;;;;;;;;;8.50;45.10;;;;;;5002608;28;19921;-71
2022/03/19 04:58:32;;;;;;;;;;;8.50;45.20;;;;;;4997279;28;19918;-60
2022/03/19 05:00:58;;;;;;;;;;;8.50;45.30;;;;;;4994539;28;19917;-71
2022/03/19 05:03:23;;;;;;;;;;;8.40;45.50;;;;;;4994316;28;20280;-71
2022/03/19 05:05:49;;;;;;;;;;;8.40;45.70;;;;;;4994250;28;19913;-57
2022/03/19 05:08:14;;;;;;;;;;;8.40;45.70;;;;;;4994208;28;19910;-57
2022/03/19 05:13:24;;;;;;;;;;;8.40;45.70;;;;;;4994234;28;19917;-64
2022/03/19 05:15:49;;;;;;;;;;;8.40;45.80;;;;;;4994083;28;19910;-70
2022/03/19 05:18:15;;;;;;;;;;;8.40;45.70;;;;;;4994196;28;19917;-56
2022/03/19 05:20:40;;;;;;;;;;;8.40;45.90;;;;;;4994363;28;19910;-56
2022/03/19 05:23:06;;;;;;;;;;;8.30;46.10;;;;;;4993682;28;20378;-62
2022/03/19 05:25:32;;;;;;;;;;;8.30;46.60;;;;;;4993707;28;19925;-55
2022/03/19 05:27:57;;;;;;;;;;;8.30;46.00;;;;;;4994286;28;19921;-56
2022/03/19 05:30:23;;;;;;;;;;;8.40;46.00;;;;;;4996325;28;19932;-56
2022/03/19 05:32:49;;;;;;;;;;;8.30;46.10;;;;;;4997755;28;19957;-62
2022/03/19 05:35:15;;;;;;;;;;;8.40;46.20;;;;;;4997432;28;19909;-56
2022/03/19 05:37:41;;;;;;;;;;;8.30;46.00;;;;;;4997492;28;20362;-57
2022/03/19 05:40:06;;;;;;;;;;;8.40;46.00;;;;;;4997136;28;19910;-58
2022/03/19 05:42:32;;;;;;;;;;;8.30;45.90;;;;;;4997299;28;19961;-57
2022/03/19 05:44:58;;;;;;;;;;;8.30;46.10;;;;;;4997227;28;19917;-64
2022/03/19 05:47:23;;;;;;;;;;;8.30;46.00;;;;;;4997275;28;20056;-63
2022/03/19 05:49:49;;;;;;;;;;;8.40;45.90;;;;;;4997147;28;20008;-69
2022/03/19 05:52:16;;;;;;;;;;;8.40;45.70;;;;;;4997197;28;19910;-71
2022/03/19 05:54:42;;;;;;;;;;;8.40;45.70;;;;;;4996934;28;19914;-63
2022/03/19 05:57:08;;;;;;;;;;;8.30;45.60;;;;;;4997059;28;20052;-65
2022/03/19 05:59:33;;;;;;;;;;;8.30;45.60;;;;;;4995770;28;19976;-55
2022/03/19 06:01:59;;;;;;;;;;;8.30;45.10;;;;;;4996886;28;19961;-62
2022/03/19 06:04:25;;;;;;;;;;;8.40;44.90;;;;;;4995505;28;20325;-60
2022/03/19 06:06:50;;;;;;;;;;;8.40;44.70;;;;;;4996657;28;20329;-56
2022/03/19 06:09:16;;;;;;;;;;;8.40;44.50;;;;;;4996644;28;20282;-66
2022/03/19 06:11:43;;;;;;;;;;;8.30;44.40;;;;;;4996534;28;19952;-56
2022/03/19 06:14:08;;;;;;;;;;;8.30;44.30;;;;;;4996700;28;19921;-63
2022/03/19 06:16:34;;;;;;;;;;;8.30;44.40;;;;;;4996632;28;20440;-55
2022/03/19 06:18:59;;;;;;;;;;;8.40;44.40;;;;;;4996636;28;19911;-55
2022/03/19 06:21:25;;;;;;;;;;;8.40;44.20;;;;;;4996549;28;19956;-60
2022/03/19 06:23:51;;;;;;;;;;;8.40;44.00;;;;;;4996470;28;19909;-55
2022/03/19 06:26:18;;;;;;;;;;;8.40;43.70;;;;;;4996307;28;20362;-56
2022/03/19 06:28:44;;;;;;;;;;;8.50;43.70;;;;;;4995039;28;20255;-61
2022/03/19 06:31:09;;;;;;;;;;;8.50;43.40;;;;;;4996677;28;19932;-58
2022/03/19 06:33:35;;;;;;;;;;;8.50;43.40;;;;;;4996153;28;20282;-63
2022/03/19 06:38:45;;;;;;;;;;;8.60;43.60;;;;;;4996067;28;20306;-70
2022/03/19 06:41:11;;;;;;;;;;;8.80;46.00;;;;;;4994941;28;19909;-68
2022/03/19 06:43:37;;;;;;;;;;;9.30;46.00;;;;;;4995978;28;19910;-53
2022/03/19 06:46:02;;;;;;;;;;;9.60;43.90;;;;;;4995972;28;20378;-65
2022/03/19 06:48:28;;;;;;;;;;;9.80;42.50;;;;;;4996127;28;19917;-66
2022/03/19 06:50:54;;;;;;;;;;;10.20;42.50;;;;;;4996029;28;19909;-63
2022/03/19 06:53:20;;;;;;;;;;;10.30;41.00;;;;;;4995974;28;19916;-67
2022/03/19 06:55:46;;;;;;;;;;;10.30;39.70;;;;;;4995974;28;19909;-62
2022/03/19 06:58:11;;;;;;;;;;;10.50;41.20;;;;;;4996023;28;20021;-68
2022/03/19 07:00:37;;;;;;;;;;;10.50;39.20;;;;;;4995881;28;19913;-57
2022/03/19 07:03:03;;;;;;;;;;;10.70;42.30;;;;;;4995411;28;20004;-67
2022/03/19 07:05:30;;;;;;;;;;;10.80;39.80;;;;;;4995502;28;19914;-73
2022/03/19 07:07:56;;;;;;;;;;;11.20;42.30;;;;;;4995901;28;19918;-60
2022/03/19 07:10:22;;;;;;;;;;;11.00;37.90;;;;;;4995543;28;19913;-66
2022/03/19 07:12:48;;;;;;;;;;;11.30;38.40;;;;;;4995470;28;19963;-60
2022/03/19 07:15:15;;;;;;;;;;;11.20;37.80;;;;;;4995502;28;19914;-74
2022/03/19 07:17:41;;;;;;;;;;;11.20;37.00;;;;;;4995629;28;19933;-70
2022/03/19 07:20:07;;;;;;;;;;;10.80;37.10;;;;;;4992351;28;20294;-64
2022/03/19 07:22:48;;;;;;;;;;;10.80;37.20;;;;;;4994360;28;19914;-57
2022/03/19 07:25:14;;;;;;;;;;;10.80;37.70;;;;;;4990851;28;19925;-64
2022/03/19 07:27:40;;;;;;;;;;;10.60;37.60;;;;;;4993531;28;19914;-58
2022/03/19 07:30:05;;;;;;;;;;;10.70;37.20;;;;;;4994881;28;20317;-57
2022/03/19 07:32:31;;;;;;;;;;;10.70;37.60;;;;;;4994910;28;20009;-65
2022/03/19 07:34:56;;;;;;;;;;;10.80;36.90;;;;;;4994878;28;19921;-63
2022/03/19 07:37:22;;;;;;;;;;;11.00;36.40;;;;;;4994805;28;19933;-63
2022/03/19 07:39:47;;;;;;;;;;;10.90;36.50;;;;;;4994992;28;19910;-62
2022/03/19 07:42:13;;;;;;;;;;;10.90;36.60;;;;;;4995019;28;19922;-66
2022/03/19 07:44:38;;;;;;;;;;;10.90;36.50;;;;;;4995032;28;20313;-73
2022/03/19 07:47:04;;;;;;;;;;;11.10;36.40;;;;;;4994745;28;19918;-68
2022/03/19 07:49:29;;;;;;;;;;;11.10;35.80;;;;;;4991711;28;20317;-57
2022/03/19 07:51:55;;;;;;;;;;;11.20;36.40;;;;;;4989290;28;19914;-57
2022/03/19 07:54:27;;;;;;;;;;;11.30;35.20;;;;;;4986062;28;19964;-55
2022/03/19 07:56:53;;;;;;;;;;;11.40;35.10;;;;;;4997227;28;20000;-69
2022/03/19 07:59:20;;;;;;;;;;;11.50;34.60;;;;;;4978862;28;20351;-57
2022/03/19 08:01:48;;;;;;;;;;;11.60;34.20;;;;;;4974797;28;19910;-63
2022/03/19 08:04:13;;;;;;;;;;;11.80;33.50;;;;;;4975098;28;19914;-60
2022/03/19 08:06:39;;;;;;;;;;;11.90;33.10;;;;;;4975062;28;20397;-71
2022/03/19 08:09:06;;;;;;;;;;;11.60;32.90;;;;;;4975214;28;19910;-72
2022/03/19 08:11:33;;;;;;;;;;;11.50;33.00;;;;;;4990401;28;19918;-63
2022/03/19 08:13:59;;;;;;;;;;;11.70;32.70;;;;;;4993859;28;19910;-61
2022/03/19 08:16:25;;;;;;;;;;;11.80;32.90;;;;;;4993744;28;19910;-75
2022/03/19 08:18:50;;;;;;;;;;;11.80;32.90;;;;;;4994068;28;20267;-56
2022/03/19 08:21:16;;;;;;;;;;;11.80;32.30;;;;;;4993828;28;19937;-70
2022/03/19 08:23:42;;;;;;;;;;;11.70;32.60;;;;;;4994179;28;19914;-66
2022/03/19 08:26:07;;;;;;;;;;;11.80;32.20;;;;;;4994208;28;19917;-60
2022/03/19 08:28:33;;;;;;;;;;;11.90;32.20;;;;;;4994189;28;19910;-58
2022/03/19 08:30:58;;;;;;;;;;;12.00;31.60;;;;;;4992912;28;19910;-57
2022/03/19 08:33:25;;;;;;;;;;;11.90;31.20;;;;;;4994185;28;19953;-60
2022/03/19 08:35:52;;;;;;;;;;;12.00;31.90;;;;;;4994308;28;19914;-62
2022/03/19 08:41:01;;;;;;;;;;;12.20;31.90;;;;;;4993943;28;20349;-56
2022/03/19 08:43:27;;;;;;;;;;;12.10;30.70;;;;;;4993742;28;19914;-56
2022/03/19 08:45:52;;;;;;;;;;;12.20;31.00;;;;;;4993790;28;19917;-58
2022/03/19 08:48:18;;;;;;;;;;;12.30;30.70;;;;;;4994010;28;19910;-57
2022/03/19 08:50:45;;;;;;;;;;;12.30;30.60;;;;;;4993890;28;19910;-55
2022/03/19 08:53:11;;;;;;;;;;;12.30;30.70;;;;;;4993914;28;20012;-57
2022/03/19 08:55:36;;;;;;;;;;;12.20;30.20;;;;;;4993469;28;20020;-58
2022/03/19 08:58:03;;;;;;;;;;;12.10;30.00;;;;;;4993563;28;19920;-60
2022/03/19 09:00:28;;;;;;;;;;;11.90;30.10;;;;;;4993535;28;20372;-58
2022/03/19 09:02:55;;;;;;;;;;;12.10;30.90;;;;;;4993757;28;19910;-57
2022/03/19 09:05:21;;;;;;;;;;;12.30;30.50;;;;;;4996158;28;19910;-57
2022/03/19 09:07:47;;;;;;;;;;;12.50;30.30;;;;;;4997214;28;19972;-57
2022/03/19 09:10:12;;;;;;;;;;;12.60;30.20;;;;;;4993210;28;20369;-58
2022/03/19 09:12:38;;;;;;;;;;;12.70;30.20;;;;;;4997372;28;19910;-59
2022/03/19 09:15:05;;;;;;;;;;;12.70;30.00;;;;;;4997234;28;19997;-58
2022/03/19 09:17:30;;;;;;;;;;;12.60;29.90;;;;;;4997350;28;19910;-57
2022/03/19 09:19:56;;;;;;;;;;;12.70;30.00;;;;;;4997410;28;19968;-58
2022/03/19 09:22:21;;;;;;;;;;;12.70;30.70;;;;;;4997543;28;19968;-61
2022/03/19 09:24:48;;;;;;;;;;;12.60;30.00;;;;;;4982312;28;19961;-62
2022/03/19 09:27:14;;;;;;;;;;;12.80;29.60;;;;;;4977664;28;19961;-66
2022/03/19 09:29:39;;;;;;;;;;;12.70;29.40;;;;;;4977750;28;20348;-59
2022/03/19 09:32:05;;;;;;;;;;;12.70;29.30;;;;;;4977727;28;19910;-59
2022/03/19 09:34:31;;;;;;;;;;;12.50;29.70;;;;;;4977445;28;19910;-61
2022/03/19 09:36:56;;;;;;;;;;;12.50;33.60;;;;;;4977539;28;20366;-59
2022/03/19 09:39:22;;;;;;;;;;;12.90;33.20;;;;;;4977375;28;20069;-63
2022/03/19 09:41:47;;;;;;;;;;;12.90;29.50;;;;;;4977593;28;19910;-59
2022/03/19 09:44:13;;;;;;;;;;;12.90;29.80;;;;;;4977450;28;19959;-59
2022/03/19 09:46:39;;;;;;;;;;;13.00;29.30;;;;;;4977782;28;20433;-59
2022/03/19 09:49:04;;;;;;;;;;;13.00;29.40;;;;;;4977277;28;20325;-61
2022/03/19 09:51:31;;;;;;;;;;;13.10;28.80;;;;;;4977490;28;19914;-59
2022/03/19 09:53:57;;;;;;;;;;;13.00;29.00;;;;;;4979481;28;19910;-61
2022/03/19 09:56:23;;;;;;;;;;;13.00;28.50;;;;;;4980794;28;19910;-65
2022/03/19 09:58:48;;;;;;;;;;;13.10;28.70;;;;;;4980173;28;19914;-68
2022/03/19 10:01:20;;;;;;;;;;;13.10;28.30;;;;;;4977956;28;19914;-73
2022/03/19 10:03:47;;;;;;;;;;;13.00;28.70;;;;;;4977395;28;19953;-72
2022/03/19 10:08:58;;;;;;;;;;;13.10;28.20;;;;;;4977619;28;19918;-75
2022/03/19 10:11:28;;;;;;;;;;;13.10;28.40;;;;;;4977576;28;19910;-73
2022/03/19 10:13:54;;;;;;;;;;;13.30;27.80;;;;;;4977145;28;19964;-69
2022/03/19 10:16:24;;;;;;;;;;;13.50;28.90;;;;;;4976686;28;20370;-58
2022/03/19 10:19:08;;;;;;;;;;;13.40;28.10;;;;;;4977135;28;19910;-74
2022/03/19 10:21:37;;;;;;;;;;;13.50;28.40;;;;;;4976597;28;20329;-58
2022/03/19 10:24:04;;;;;;;;;;;13.40;27.50;;;;;;4976814;28;19907;-78
2022/03/19 10:26:30;;;;;;;;;;;13.20;27.60;;;;;;4977011;28;19925;-73
2022/03/19 10:29:01;;;;;;;;;;;13.20;28.50;;;;;;4976762;28;19910;-68
2022/03/19 10:31:31;;;;;;;;;;;13.30;28.30;;;;;;4976647;28;19911;-63
2022/03/19 10:33:56;;;;;;;;;;;13.40;28.40;;;;;;4976804;28;19910;-69
2022/03/19 10:36:27;;;;;;;;;;;13.50;28.70;;;;;;4976799;28;19945;-66
2022/03/19 10:38:53;;;;;;;;;;;13.40;28.00;;;;;;4975592;28;19930;-65
2022/03/19 10:41:19;;;;;;;;;;;13.40;29.10;;;;;;4976678;28;19940;-73
2022/03/19 10:43:45;;;;;;;;;;;13.40;28.40;;;;;;4976871;28;19911;-70
2022/03/19 10:46:11;;;;;;;;;;;13.60;28.60;;;;;;4975942;28;19914;-71
2022/03/19 10:48:36;;;;;;;;;;;13.70;28.40;;;;;;4975882;28;20441;-64
2022/03/19 10:51:06;;;;;;;;;;;13.60;27.70;;;;;;4977789;28;19918;-58
2022/03/19 10:53:33;;;;;;;;;;;13.70;27.90;;;;;;4979006;28;19914;-56
2022/03/19 10:56:00;;;;;;;;;;;13.70;28.00;;;;;;4976108;28;20421;-58
2022/03/19 10:58:26;;;;;;;;;;;13.80;27.50;;;;;;4976387;28;20354;-57
2022/03/19 11:00:52;;;;;;;;;;;13.80;27.40;;;;;;4976302;28;19922;-63
2022/03/19 11:03:19;;;;;;;;;;;13.90;27.50;;;;;;4976103;28;19910;-59
2022/03/19 11:05:44;;;;;;;;;;;14.00;27.60;;;;;;4976057;28;19914;-62
2022/03/19 11:08:10;;;;;;;;;;;14.00;27.70;;;;;;4976334;28;19917;-63
2022/03/19 11:10:36;;;;;;;;;;;13.90;26.90;;;;;;4976166;28;19911;-58
2022/03/19 11:13:03;;;;;;;;;;;13.80;27.50;;;;;;4976156;28;20421;-58
2022/03/19 11:15:35;;;;;;;;;;;13.90;27.60;;;;;;4975875;28;19925;-61
2022/03/19 11:18:03;;;;;;;;;;;14.00;27.60;;;;;;4976086;28;20353;-58
2022/03/19 11:20:29;;;;;;;;;;;13.90;27.20;;;;;;4976554;28;19917;-59
2022/03/19 11:22:55;;;;;;;;;;;14.00;27.70;;;;;;4979624;28;20274;-58
2022/03/19 11:25:27;;;;;;;;;;;14.20;27.70;;;;;;4979787;28;20277;-57
2022/03/19 11:28:05;;;;;;;;;;;14.30;27.40;;;;;;4979345;28;20378;-61
2022/03/19 11:30:32;;;;;;;;;;;14.40;26.60;;;;;;4978735;28;20271;-62
2022/03/19 11:33:09;;;;;;;;;;;14.40;26.30;;;;;;4975166;28;19910;-60
2022/03/19 11:35:38;;;;;;;;;;;14.40;26.10;;;;;;4976811;28;20239;-58
2022/03/19 11:38:33;;;;;;;;;;;14.40;26.50;;;;;;4976072;28;20398;-59
2022/03/19 11:41:00;;;;;;;;;;;14.40;26.80;;;;;;4984214;28;19986;-57
2022/03/19 11:43:26;;;;;;;;;;;14.30;26.20;;;;;;4976369;28;19957;-57
2022/03/19 11:45:57;;;;;;;;;;;14.20;26.30;;;;;;4975966;28;19954;-58
2022/03/19 11:48:35;;;;;;;;;;;14.30;26.20;;;;;;4975811;28;19914;-58
2022/03/19 11:51:19;;;;;;;;;;;14.30;25.60;;;;;;4975778;28;19918;-60
2022/03/19 11:54:04;;;;;;;;;;;14.50;25.70;;;;;;4975760;28;19911;-57
2022/03/19 11:56:35;;;;;;;;;;;14.40;25.70;;;;;;4975681;28;19994;-57
2022/03/19 11:59:04;;;;;;;;;;;14.20;25.80;;;;;;4975883;28;20001;-57
2022/03/19 12:01:49;;;;;;;;;;;14.30;26.40;;;;;;4974294;28;19910;-57
2022/03/19 12:04:18;;;;;;;;;;;14.60;26.20;;;;;;4975599;28;19922;-58
2022/03/19 12:06:57;;;;;;;;;;;14.60;25.10;;;;;;4975297;28;19940;-58
2022/03/19 12:09:33;;;;;;;;;;;14.60;24.10;;;;;;4975400;28;19914;-58
2022/03/19 12:12:13;;;;;;;;;;;14.80;24.50;;;;;;4975050;28;20337;-58
2022/03/19 12:14:40;;;;;;;;;;;14.80;24.00;;;;;;4975018;28;19951;-58
2022/03/19 12:17:21;;;;;;;;;;;14.90;23.80;;;;;;4975006;28;19910;-58
2022/03/19 12:19:48;;;;;;;;;;;15.00;23.70;;;;;;4975162;28;19910;-58
2022/03/19 12:22:24;;;;;;;;;;;14.90;23.70;;;;;;4974848;28;19950;-58
2022/03/19 12:24:51;;;;;;;;;;;14.90;24.00;;;;;;4975247;28;19910;-58
2022/03/19 12:27:17;;;;;;;;;;;14.90;23.90;;;;;;4974873;28;20305;-58
2022/03/19 12:29:42;;;;;;;;;;;14.90;23.70;;;;;;4974969;28;19914;-58
2022/03/19 12:32:08;;;;;;;;;;;14.90;23.80;;;;;;4975028;28;20387;-57
2022/03/19 12:34:34;;;;;;;;;;;15.00;23.40;;;;;;4974738;28;19910;-57
2022/03/19 12:37:00;;;;;;;;;;;15.10;23.20;;;;;;4974492;28;19921;-57
2022/03/19 12:39:26;;;;;;;;;;;15.00;23.00;;;;;;4977355;28;19917;-58
2022/03/19 12:41:51;;;;;;;;;;;15.20;24.00;;;;;;4978832;28;19910;-58
2022/03/19 12:44:17;;;;;;;;;;;15.20;23.20;;;;;;4978903;28;19932;-60
2022/03/19 12:46:43;;;;;;;;;;;15.10;22.80;;;;;;4978545;28;20388;-58
2022/03/19 12:49:17;;;;;;;;;;;15.00;23.50;;;;;;4978717;28;19910;-59
2022/03/19 12:51:45;;;;;;;;;;;14.90;22.90;;;;;;4978633;28;19934;-57
2022/03/19 12:54:27;;;;;;;;;;;15.00;23.40;;;;;;4978536;28;19937;-58
2022/03/19 12:56:54;;;;;;;;;;;15.00;23.30;;;;;;4978487;28;19914;-61
2022/03/19 12:59:20;;;;;;;;;;;15.20;23.70;;;;;;4978621;28;19910;-59
2022/03/19 13:01:46;;;;;;;;;;;15.20;23.00;;;;;;4978379;28;19910;-57
2022/03/19 13:04:17;;;;;;;;;;;15.20;23.50;;;;;;4978330;28;19921;-58
2022/03/19 13:06:43;;;;;;;;;;;15.10;23.20;;;;;;4978548;28;19918;-60
2022/03/19 13:09:10;;;;;;;;;;;15.00;23.70;;;;;;4978438;28;19912;-58
2022/03/19 13:11:42;;;;;;;;;;;15.10;24.00;;;;;;4978392;28;19910;-63
2022/03/19 13:14:08;;;;;;;;;;;15.30;23.80;;;;;;4978259;28;19921;-59
2022/03/19 13:16:34;;;;;;;;;;;15.10;23.20;;;;;;4978267;28;19910;-63
2022/03/19 13:19:00;;;;;;;;;;;15.00;24.00;;;;;;4978237;28;19985;-57
2022/03/19 13:21:27;;;;;;;;;;;15.10;24.30;;;;;;4978393;28;19910;-59
2022/03/19 13:23:53;;;;;;;;;;;15.20;24.00;;;;;;4978179;28;19910;-63
2022/03/19 13:26:21;;;;;;;;;;;15.40;23.90;;;;;;4978184;28;20378;-59
2022/03/19 13:28:59;;;;;;;;;;;15.30;23.20;;;;;;4978143;28;19914;-58
2022/03/19 13:31:25;;;;;;;;;;;15.40;23.50;;;;;;4977728;28;19910;-58
2022/03/19 13:33:51;;;;;;;;;;;15.20;23.60;;;;;;4976762;28;19961;-57
2022/03/19 13:36:17;;;;;;;;;;;15.10;23.60;;;;;;4978007;28;20342;-59
2022/03/19 13:38:43;;;;;;;;;;;15.10;24.30;;;;;;4977693;28;20399;-58
2022/03/19 13:41:16;;;;;;;;;;;14.90;24.10;;;;;;4978033;28;19965;-58
2022/03/19 13:43:42;;;;;;;;;;;14.80;24.40;;;;;;4977604;28;19914;-58
2022/03/19 13:46:14;;;;;;;;;;;15.10;24.00;;;;;;4980366;28;19921;-57
2022/03/19 13:48:40;;;;;;;;;;;14.80;23.60;;;;;;4979056;28;19933;-61
2022/03/19 13:51:06;;;;;;;;;;;14.80;24.50;;;;;;4977026;28;19910;-60
2022/03/19 13:53:42;;;;;;;;;;;14.90;24.20;;;;;;4977552;28;20045;-57
2022/03/19 13:56:08;;;;;;;;;;;15.00;24.60;;;;;;4977286;28;20310;-58
2022/03/19 13:58:34;;;;;;;;;;;15.00;24.70;;;;;;4977248;28;19996;-58
2022/03/19 14:01:09;;;;;;;;;;;15.00;24.80;;;;;;4977479;28;19992;-61
2022/03/19 14:03:40;;;;;;;;;;;15.00;25.10;;;;;;4977287;28;19910;-58
2022/03/19 14:06:06;;;;;;;;;;;15.10;25.40;;;;;;4977375;28;20286;-60
2022/03/19 14:08:31;;;;;;;;;;;15.10;24.80;;;;;;4976914;28;19910;-57
2022/03/19 14:10:57;;;;;;;;;;;14.90;24.30;;;;;;4977196;28;19910;-59
2022/03/19 14:13:33;;;;;;;;;;;14.90;24.60;;;;;;4977151;28;19910;-58
2022/03/19 14:16:05;;;;;;;;;;;14.80;25.20;;;;;;4977409;28;19953;-58
2022/03/19 14:18:31;;;;;;;;;;;14.90;25.10;;;;;;4977382;28;19917;-58
2022/03/19 14:21:01;;;;;;;;;;;14.80;25.20;;;;;;4977004;28;20033;-59
2022/03/19 14:23:26;;;;;;;;;;;14.90;24.90;;;;;;4976897;28;19910;-58
2022/03/19 14:25:52;;;;;;;;;;;14.90;25.20;;;;;;4976810;28;19969;-58
2022/03/19 14:28:18;;;;;;;;;;;14.80;24.90;;;;;;4977058;28;19910;-58
2022/03/19 14:30:44;;;;;;;;;;;14.80;25.00;;;;;;4976971;28;19911;-58
2022/03/19 14:33:10;;;;;;;;;;;14.90;24.90;;;;;;4976724;28;19941;-57
2022/03/19 14:35:38;;;;;;;;;;;14.70;24.80;;;;;;4977080;28;19914;-58